Saint John, Canada
Current Conditions -  °F | °C
As of 1:00 PM on Thursday 30 Oct 2014 (Local Time) from CYSJ Reporting Station
Broken Clouds Broken Clouds  
Wind Chill: 52°   Ceiling: 25000
Heat Index: 52°   Visibility: 15mi
Dew Point: 39°   Wind: 9mph
Humidity: 62%   Direction: 310°NW
Pressure: 29.82"   Gusts: NA
Location:  45.27°N, 66.06°W
Report Text: CYSJ 301600Z 31008KT 250V320 15SM SCT020 BKN250 11/04 A2982 RMK SC3CI2 SLP098
Loading
Personal Weather Stations






























Interactive Weather Map
Tropical Storm Tracking
New forecast layout! Learn more

10-Day Weather Forecast

Advertisements
Track Severe Weather on mobile